sensor_id;sensor_type;location;lat;lon;timestamp;P1;durP1;ratioP1;P2;durP2;ratioP2
9629;SDS011;16022;50.884;4.698;2022-07-18T00:01:05;4.10;;;2.90;;
9629;SDS011;16022;50.884;4.698;2022-07-18T00:03:33;6.90;;;2.55;;
9629;SDS011;16022;50.884;4.698;2022-07-18T00:06:00;3.70;;;2.65;;
9629;SDS011;16022;50.884;4.698;2022-07-18T00:08:28;4.07;;;2.47;;
9629;SDS011;16022;50.884;4.698;2022-07-18T00:10:55;7.90;;;3.10;;
9629;SDS011;16022;50.884;4.698;2022-07-18T00:13:23;3.47;;;2.35;;
9629;SDS011;16022;50.884;4.698;2022-07-18T00:15:51;3.70;;;2.60;;
9629;SDS011;16022;50.884;4.698;2022-07-18T00:18:20;6.63;;;2.88;;
9629;SDS011;16022;50.884;4.698;2022-07-18T00:20:47;3.83;;;2.63;;
9629;SDS011;16022;50.884;4.698;2022-07-18T00:23:15;8.88;;;2.80;;
9629;SDS011;16022;50.884;4.698;2022-07-18T00:25:42;6.57;;;2.70;;
9629;SDS011;16022;50.884;4.698;2022-07-18T00:28:10;5.72;;;2.45;;
9629;SDS011;16022;50.884;4.698;2022-07-18T00:30:39;4.47;;;2.42;;
9629;SDS011;16022;50.884;4.698;2022-07-18T00:33:07;3.90;;;2.50;;
9629;SDS011;16022;50.884;4.698;2022-07-18T00:35:35;3.92;;;2.70;;
9629;SDS011;16022;50.884;4.698;2022-07-18T00:38:02;5.22;;;2.70;;
9629;SDS011;16022;50.884;4.698;2022-07-18T00:40:31;5.90;;;2.53;;
9629;SDS011;16022;50.884;4.698;2022-07-18T00:42:59;4.20;;;2.85;;
9629;SDS011;16022;50.884;4.698;2022-07-18T00:45:26;4.28;;;2.60;;
9629;SDS011;16022;50.884;4.698;2022-07-18T00:47:54;3.58;;;2.55;;
9629;SDS011;16022;50.884;4.698;2022-07-18T00:50:22;4.22;;;2.20;;
9629;SDS011;16022;50.884;4.698;2022-07-18T00:52:50;5.38;;;2.40;;
9629;SDS011;16022;50.884;4.698;2022-07-18T00:55:17;2.50;;;2.30;;
9629;SDS011;16022;50.884;4.698;2022-07-18T00:57:45;4.20;;;2.47;;
9629;SDS011;16022;50.884;4.698;2022-07-18T01:00:12;3.25;;;2.28;;
9629;SDS011;16022;50.884;4.698;2022-07-18T01:02:59;6.07;;;2.38;;
9629;SDS011;16022;50.884;4.698;2022-07-18T01:05:27;5.80;;;2.72;;
9629;SDS011;16022;50.884;4.698;2022-07-18T01:07:54;3.08;;;2.22;;
9629;SDS011;16022;50.884;4.698;2022-07-18T01:10:22;5.97;;;2.60;;
9629;SDS011;16022;50.884;4.698;2022-07-18T01:12:50;3.30;;;2.40;;
9629;SDS011;16022;50.884;4.698;2022-07-18T01:15:17;4.55;;;2.20;;
9629;SDS011;16022;50.884;4.698;2022-07-18T01:17:45;5.22;;;2.70;;
9629;SDS011;16022;50.884;4.698;2022-07-18T01:20:13;3.15;;;2.20;;
9629;SDS011;16022;50.884;4.698;2022-07-18T01:22:41;3.42;;;2.30;;
9629;SDS011;16022;50.884;4.698;2022-07-18T01:25:09;2.33;;;2.05;;
9629;SDS011;16022;50.884;4.698;2022-07-18T01:27:37;2.55;;;2.00;;
9629;SDS011;16022;50.884;4.698;2022-07-18T01:30:05;4.68;;;2.40;;
9629;SDS011;16022;50.884;4.698;2022-07-18T01:32:33;4.60;;;2.30;;
9629;SDS011;16022;50.884;4.698;2022-07-18T01:35:01;2.88;;;2.20;;
9629;SDS011;16022;50.884;4.698;2022-07-18T01:37:28;5.82;;;2.10;;
9629;SDS011;16022;50.884;4.698;2022-07-18T01:39:56;2.72;;;2.40;;
9629;SDS011;16022;50.884;4.698;2022-07-18T01:42:24;3.97;;;2.20;;
9629;SDS011;16022;50.884;4.698;2022-07-18T01:44:51;4.28;;;2.67;;
9629;SDS011;16022;50.884;4.698;2022-07-18T01:47:19;4.45;;;2.10;;
9629;SDS011;16022;50.884;4.698;2022-07-18T01:49:47;4.57;;;2.22;;
9629;SDS011;16022;50.884;4.698;2022-07-18T01:52:14;3.13;;;2.30;;
9629;SDS011;16022;50.884;4.698;2022-07-18T01:54:42;3.03;;;2.45;;
9629;SDS011;16022;50.884;4.698;2022-07-18T01:57:09;4.10;;;2.25;;
9629;SDS011;16022;50.884;4.698;2022-07-18T01:59:37;3.90;;;2.20;;
9629;SDS011;16022;50.884;4.698;2022-07-18T02:02:05;2.97;;;2.00;;
9629;SDS011;16022;50.884;4.698;2022-07-18T02:04:33;3.83;;;2.30;;
9629;SDS011;16022;50.884;4.698;2022-07-18T02:07:19;4.43;;;2.40;;
9629;SDS011;16022;50.884;4.698;2022-07-18T02:09:46;4.10;;;2.25;;
9629;SDS011;16022;50.884;4.698;2022-07-18T02:12:14;4.20;;;2.85;;
9629;SDS011;16022;50.884;4.698;2022-07-18T02:14:42;3.08;;;2.00;;
9629;SDS011;16022;50.884;4.698;2022-07-18T02:17:09;6.70;;;2.58;;
9629;SDS011;16022;50.884;4.698;2022-07-18T02:19:37;5.53;;;2.30;;
9629;SDS011;16022;50.884;4.698;2022-07-18T02:22:05;3.15;;;2.00;;
9629;SDS011;16022;50.884;4.698;2022-07-18T02:24:32;5.85;;;2.35;;
9629;SDS011;16022;50.884;4.698;2022-07-18T02:27:00;3.03;;;2.20;;
9629;SDS011;16022;50.884;4.698;2022-07-18T02:29:27;2.75;;;2.10;;
9629;SDS011;16022;50.884;4.698;2022-07-18T02:31:55;3.88;;;2.10;;
9629;SDS011;16022;50.884;4.698;2022-07-18T02:34:23;4.15;;;2.30;;
9629;SDS011;16022;50.884;4.698;2022-07-18T02:36:50;3.25;;;2.22;;
9629;SDS011;16022;50.884;4.698;2022-07-18T02:39:18;3.95;;;2.05;;
9629;SDS011;16022;50.884;4.698;2022-07-18T02:41:46;4.80;;;2.50;;
9629;SDS011;16022;50.884;4.698;2022-07-18T02:44:14;3.33;;;2.17;;
9629;SDS011;16022;50.884;4.698;2022-07-18T02:46:42;3.60;;;2.22;;
9629;SDS011;16022;50.884;4.698;2022-07-18T02:49:10;5.50;;;2.50;;
9629;SDS011;16022;50.884;4.698;2022-07-18T02:51:57;3.60;;;2.30;;
9629;SDS011;16022;50.884;4.698;2022-07-18T02:54:25;3.40;;;2.22;;
9629;SDS011;16022;50.884;4.698;2022-07-18T02:56:53;3.92;;;2.33;;
9629;SDS011;16022;50.884;4.698;2022-07-18T02:59:21;3.70;;;2.47;;
9629;SDS011;16022;50.884;4.698;2022-07-18T03:01:48;2.80;;;2.13;;
9629;SDS011;16022;50.884;4.698;2022-07-18T03:04:16;3.95;;;2.42;;
9629;SDS011;16022;50.884;4.698;2022-07-18T03:06:44;2.30;;;2.20;;
9629;SDS011;16022;50.884;4.698;2022-07-18T03:09:12;2.50;;;2.28;;
9629;SDS011;16022;50.884;4.698;2022-07-18T03:11:40;2.40;;;2.20;;
9629;SDS011;16022;50.884;4.698;2022-07-18T03:14:08;3.15;;;2.40;;
9629;SDS011;16022;50.884;4.698;2022-07-18T03:16:35;4.25;;;2.35;;
9629;SDS011;16022;50.884;4.698;2022-07-18T03:19:02;3.47;;;2.38;;
9629;SDS011;16022;50.884;4.698;2022-07-18T03:21:30;6.47;;;2.25;;
9629;SDS011;16022;50.884;4.698;2022-07-18T03:23:57;2.80;;;2.33;;
9629;SDS011;16022;50.884;4.698;2022-07-18T03:26:25;2.28;;;2.00;;
9629;SDS011;16022;50.884;4.698;2022-07-18T03:28:52;2.65;;;2.13;;
9629;SDS011;16022;50.884;4.698;2022-07-18T03:31:20;3.03;;;2.55;;
9629;SDS011;16022;50.884;4.698;2022-07-18T03:33:48;4.30;;;2.40;;
9629;SDS011;16022;50.884;4.698;2022-07-18T03:36:15;2.70;;;2.45;;
9629;SDS011;16022;50.884;4.698;2022-07-18T03:38:43;5.22;;;2.60;;
9629;SDS011;16022;50.884;4.698;2022-07-18T03:41:11;4.90;;;2.72;;
9629;SDS011;16022;50.884;4.698;2022-07-18T03:43:39;2.38;;;2.17;;
9629;SDS011;16022;50.884;4.698;2022-07-18T03:46:07;5.75;;;2.30;;
9629;SDS011;16022;50.884;4.698;2022-07-18T03:48:36;4.20;;;2.58;;
9629;SDS011;16022;50.884;4.698;2022-07-18T03:51:03;5.68;;;2.80;;
9629;SDS011;16022;50.884;4.698;2022-07-18T03:53:31;3.80;;;2.60;;
9629;SDS011;16022;50.884;4.698;2022-07-18T03:55:59;6.05;;;2.55;;
9629;SDS011;16022;50.884;4.698;2022-07-18T03:58:26;5.95;;;2.50;;
9629;SDS011;16022;50.884;4.698;2022-07-18T04:00:54;5.32;;;2.70;;
9629;SDS011;16022;50.884;4.698;2022-07-18T04:03:22;3.50;;;2.70;;
9629;SDS011;16022;50.884;4.698;2022-07-18T04:05:50;3.20;;;2.30;;
9629;SDS011;16022;50.884;4.698;2022-07-18T04:08:18;7.30;;;2.78;;
9629;SDS011;16022;50.884;4.698;2022-07-18T04:10:46;3.80;;;3.03;;
9629;SDS011;16022;50.884;4.698;2022-07-18T04:13:13;8.55;;;2.90;;
9629;SDS011;16022;50.884;4.698;2022-07-18T04:15:41;5.53;;;2.92;;
9629;SDS011;16022;50.884;4.698;2022-07-18T04:18:09;4.45;;;2.90;;
9629;SDS011;16022;50.884;4.698;2022-07-18T04:20:36;9.27;;;2.95;;
9629;SDS011;16022;50.884;4.698;2022-07-18T04:23:06;11.95;;;3.05;;
9629;SDS011;16022;50.884;4.698;2022-07-18T04:25:37;6.90;;;2.35;;
9629;SDS011;16022;50.884;4.698;2022-07-18T04:28:05;6.72;;;2.80;;
9629;SDS011;16022;50.884;4.698;2022-07-18T04:30:33;4.35;;;2.67;;
9629;SDS011;16022;50.884;4.698;2022-07-18T04:33:02;3.97;;;2.53;;
9629;SDS011;16022;50.884;4.698;2022-07-18T04:35:30;4.88;;;2.80;;
9629;SDS011;16022;50.884;4.698;2022-07-18T04:37:59;4.80;;;2.60;;
9629;SDS011;16022;50.884;4.698;2022-07-18T04:40:26;4.38;;;2.25;;
9629;SDS011;16022;50.884;4.698;2022-07-18T04:42:54;4.25;;;2.25;;
9629;SDS011;16022;50.884;4.698;2022-07-18T04:45:21;3.63;;;2.60;;
9629;SDS011;16022;50.884;4.698;2022-07-18T04:47:50;3.17;;;2.10;;
9629;SDS011;16022;50.884;4.698;2022-07-18T04:50:18;4.22;;;2.60;;
9629;SDS011;16022;50.884;4.698;2022-07-18T04:52:46;5.22;;;2.50;;
9629;SDS011;16022;50.884;4.698;2022-07-18T04:55:15;3.95;;;2.40;;
9629;SDS011;16022;50.884;4.698;2022-07-18T04:57:43;3.80;;;2.63;;
9629;SDS011;16022;50.884;4.698;2022-07-18T05:00:12;3.70;;;2.80;;
9629;SDS011;16022;50.884;4.698;2022-07-18T05:02:44;5.05;;;2.63;;
9629;SDS011;16022;50.884;4.698;2022-07-18T05:05:13;5.22;;;2.80;;
9629;SDS011;16022;50.884;4.698;2022-07-18T05:07:41;5.63;;;2.50;;
9629;SDS011;16022;50.884;4.698;2022-07-18T05:10:09;3.38;;;2.75;;
9629;SDS011;16022;50.884;4.698;2022-07-18T05:12:37;4.22;;;2.90;;
9629;SDS011;16022;50.884;4.698;2022-07-18T05:15:06;3.13;;;2.83;;
9629;SDS011;16022;50.884;4.698;2022-07-18T05:17:35;4.18;;;2.60;;
9629;SDS011;16022;50.884;4.698;2022-07-18T05:20:03;3.45;;;2.95;;
9629;SDS011;16022;50.884;4.698;2022-07-18T05:22:32;4.25;;;3.00;;
9629;SDS011;16022;50.884;4.698;2022-07-18T05:25:00;8.60;;;2.90;;
9629;SDS011;16022;50.884;4.698;2022-07-18T05:27:28;6.18;;;3.05;;
9629;SDS011;16022;50.884;4.698;2022-07-18T05:29:55;4.80;;;3.20;;
9629;SDS011;16022;50.884;4.698;2022-07-18T05:32:26;4.40;;;2.70;;
9629;SDS011;16022;50.884;4.698;2022-07-18T05:34:54;8.35;;;4.50;;
9629;SDS011;16022;50.884;4.698;2022-07-18T05:37:21;4.55;;;3.22;;
9629;SDS011;16022;50.884;4.698;2022-07-18T05:39:49;5.55;;;2.58;;
9629;SDS011;16022;50.884;4.698;2022-07-18T05:42:18;4.53;;;2.78;;
9629;SDS011;16022;50.884;4.698;2022-07-18T05:45:06;5.72;;;2.72;;
9629;SDS011;16022;50.884;4.698;2022-07-18T05:47:34;5.72;;;2.95;;
9629;SDS011;16022;50.884;4.698;2022-07-18T05:50:03;7.97;;;2.83;;
9629;SDS011;16022;50.884;4.698;2022-07-18T05:52:31;7.47;;;2.55;;
9629;SDS011;16022;50.884;4.698;2022-07-18T05:54:58;5.22;;;2.60;;
9629;SDS011;16022;50.884;4.698;2022-07-18T05:57:27;3.08;;;2.78;;
9629;SDS011;16022;50.884;4.698;2022-07-18T05:59:54;4.93;;;2.90;;
9629;SDS011;16022;50.884;4.698;2022-07-18T06:02:22;4.75;;;2.83;;
9629;SDS011;16022;50.884;4.698;2022-07-18T06:04:49;7.10;;;2.90;;
9629;SDS011;16022;50.884;4.698;2022-07-18T06:07:37;4.82;;;2.60;;
9629;SDS011;16022;50.884;4.698;2022-07-18T06:10:05;4.68;;;2.47;;
9629;SDS011;16022;50.884;4.698;2022-07-18T06:12:33;5.15;;;2.80;;
9629;SDS011;16022;50.884;4.698;2022-07-18T06:15:00;3.65;;;2.38;;
9629;SDS011;16022;50.884;4.698;2022-07-18T06:17:28;4.32;;;2.22;;
9629;SDS011;16022;50.884;4.698;2022-07-18T06:19:55;3.75;;;2.15;;
9629;SDS011;16022;50.884;4.698;2022-07-18T06:22:23;2.85;;;1.88;;
9629;SDS011;16022;50.884;4.698;2022-07-18T06:24:51;3.60;;;2.20;;
9629;SDS011;16022;50.884;4.698;2022-07-18T06:27:19;4.55;;;2.00;;
9629;SDS011;16022;50.884;4.698;2022-07-18T06:29:46;4.32;;;1.75;;
9629;SDS011;16022;50.884;4.698;2022-07-18T06:32:14;2.55;;;2.00;;
9629;SDS011;16022;50.884;4.698;2022-07-18T06:34:41;3.55;;;2.10;;
9629;SDS011;16022;50.884;4.698;2022-07-18T06:37:09;2.75;;;2.10;;
9629;SDS011;16022;50.884;4.698;2022-07-18T06:39:36;2.13;;;1.83;;
9629;SDS011;16022;50.884;4.698;2022-07-18T06:42:03;5.13;;;2.03;;
9629;SDS011;16022;50.884;4.698;2022-07-18T06:44:31;3.22;;;2.20;;
9629;SDS011;16022;50.884;4.698;2022-07-18T06:46:59;2.95;;;2.15;;
9629;SDS011;16022;50.884;4.698;2022-07-18T06:49:27;5.25;;;1.98;;
9629;SDS011;16022;50.884;4.698;2022-07-18T06:51:54;3.72;;;2.08;;
9629;SDS011;16022;50.884;4.698;2022-07-18T06:54:29;4.03;;;2.13;;
9629;SDS011;16022;50.884;4.698;2022-07-18T06:56:57;4.03;;;2.22;;
9629;SDS011;16022;50.884;4.698;2022-07-18T06:59:25;4.45;;;1.98;;
9629;SDS011;16022;50.884;4.698;2022-07-18T07:01:53;3.78;;;1.90;;
9629;SDS011;16022;50.884;4.698;2022-07-18T07:04:21;2.58;;;1.80;;
9629;SDS011;16022;50.884;4.698;2022-07-18T07:06:49;3.25;;;1.98;;
9629;SDS011;16022;50.884;4.698;2022-07-18T07:09:16;2.92;;;2.10;;
9629;SDS011;16022;50.884;4.698;2022-07-18T07:11:44;3.25;;;1.98;;
9629;SDS011;16022;50.884;4.698;2022-07-18T07:14:11;2.22;;;1.80;;
9629;SDS011;16022;50.884;4.698;2022-07-18T07:16:39;4.65;;;1.85;;
9629;SDS011;16022;50.884;4.698;2022-07-18T07:19:07;3.15;;;1.83;;
9629;SDS011;16022;50.884;4.698;2022-07-18T07:21:34;2.35;;;1.92;;
9629;SDS011;16022;50.884;4.698;2022-07-18T07:24:02;3.90;;;1.85;;
9629;SDS011;16022;50.884;4.698;2022-07-18T07:26:30;2.95;;;1.80;;
9629;SDS011;16022;50.884;4.698;2022-07-18T07:28:57;3.33;;;1.88;;
9629;SDS011;16022;50.884;4.698;2022-07-18T07:31:25;4.75;;;1.67;;
9629;SDS011;16022;50.884;4.698;2022-07-18T07:33:52;4.35;;;1.80;;
9629;SDS011;16022;50.884;4.698;2022-07-18T07:36:20;4.15;;;1.70;;
9629;SDS011;16022;50.884;4.698;2022-07-18T07:38:48;4.97;;;1.95;;
9629;SDS011;16022;50.884;4.698;2022-07-18T07:41:16;3.88;;;1.80;;
9629;SDS011;16022;50.884;4.698;2022-07-18T07:43:43;3.20;;;1.90;;
9629;SDS011;16022;50.884;4.698;2022-07-18T07:46:11;3.83;;;1.90;;
9629;SDS011;16022;50.884;4.698;2022-07-18T07:48:39;2.35;;;1.67;;
9629;SDS011;16022;50.884;4.698;2022-07-18T07:51:06;3.00;;;1.63;;
9629;SDS011;16022;50.884;4.698;2022-07-18T07:53:34;2.85;;;1.52;;
9629;SDS011;16022;50.884;4.698;2022-07-18T07:56:02;3.85;;;1.75;;
9629;SDS011;16022;50.884;4.698;2022-07-18T07:58:29;2.67;;;1.60;;
9629;SDS011;16022;50.884;4.698;2022-07-18T08:00:58;1.80;;;1.70;;
9629;SDS011;16022;50.884;4.698;2022-07-18T08:03:25;3.15;;;1.70;;
9629;SDS011;16022;50.884;4.698;2022-07-18T08:05:53;2.47;;;1.70;;
9629;SDS011;16022;50.884;4.698;2022-07-18T08:08:20;4.30;;;2.03;;
9629;SDS011;16022;50.884;4.698;2022-07-18T08:10:48;5.05;;;1.80;;
9629;SDS011;16022;50.884;4.698;2022-07-18T08:13:15;2.75;;;1.83;;
9629;SDS011;16022;50.884;4.698;2022-07-18T08:15:43;2.22;;;1.85;;
9629;SDS011;16022;50.884;4.698;2022-07-18T08:18:10;2.92;;;1.70;;
9629;SDS011;16022;50.884;4.698;2022-07-18T08:20:38;2.83;;;2.20;;
9629;SDS011;16022;50.884;4.698;2022-07-18T08:23:06;3.45;;;1.65;;
9629;SDS011;16022;50.884;4.698;2022-07-18T08:25:35;2.50;;;2.20;;
9629;SDS011;16022;50.884;4.698;2022-07-18T08:28:03;5.18;;;2.13;;
9629;SDS011;16022;50.884;4.698;2022-07-18T08:30:31;2.00;;;1.55;;
9629;SDS011;16022;50.884;4.698;2022-07-18T08:32:59;2.03;;;1.65;;
9629;SDS011;16022;50.884;4.698;2022-07-18T08:35:30;2.67;;;1.63;;
9629;SDS011;16022;50.884;4.698;2022-07-18T08:38:01;4.07;;;1.90;;
9629;SDS011;16022;50.884;4.698;2022-07-18T08:40:29;4.32;;;2.20;;
9629;SDS011;16022;50.884;4.698;2022-07-18T08:42:57;4.20;;;2.10;;
9629;SDS011;16022;50.884;4.698;2022-07-18T08:45:45;4.13;;;2.10;;
9629;SDS011;16022;50.884;4.698;2022-07-18T08:48:14;3.53;;;2.00;;
9629;SDS011;16022;50.884;4.698;2022-07-18T08:50:43;6.10;;;1.85;;
9629;SDS011;16022;50.884;4.698;2022-07-18T08:53:12;3.40;;;1.80;;
9629;SDS011;16022;50.884;4.698;2022-07-18T08:55:40;3.05;;;1.80;;
9629;SDS011;16022;50.884;4.698;2022-07-18T08:58:07;4.25;;;2.10;;
9629;SDS011;16022;50.884;4.698;2022-07-18T09:00:56;1.63;;;1.52;;
9629;SDS011;16022;50.884;4.698;2022-07-18T09:03:27;2.45;;;1.90;;
9629;SDS011;16022;50.884;4.698;2022-07-18T09:06:03;3.28;;;1.70;;
9629;SDS011;16022;50.884;4.698;2022-07-18T09:08:31;5.35;;;1.80;;
9629;SDS011;16022;50.884;4.698;2022-07-18T09:10:59;3.60;;;1.65;;
9629;SDS011;16022;50.884;4.698;2022-07-18T09:13:37;2.47;;;1.63;;
9629;SDS011;16022;50.884;4.698;2022-07-18T09:16:09;2.28;;;1.77;;
9629;SDS011;16022;50.884;4.698;2022-07-18T09:18:38;2.95;;;1.65;;
9629;SDS011;16022;50.884;4.698;2022-07-18T09:21:08;1.95;;;1.70;;
9629;SDS011;16022;50.884;4.698;2022-07-18T09:23:37;3.65;;;2.15;;
9629;SDS011;16022;50.884;4.698;2022-07-18T09:26:05;3.08;;;1.55;;
9629;SDS011;16022;50.884;4.698;2022-07-18T09:28:53;5.47;;;1.80;;
9629;SDS011;16022;50.884;4.698;2022-07-18T09:31:47;2.20;;;1.80;;
9629;SDS011;16022;50.884;4.698;2022-07-18T09:34:15;3.33;;;1.60;;
9629;SDS011;16022;50.884;4.698;2022-07-18T09:36:58;3.20;;;1.63;;
9629;SDS011;16022;50.884;4.698;2022-07-18T09:39:26;2.53;;;1.60;;
9629;SDS011;16022;50.884;4.698;2022-07-18T09:41:54;3.85;;;1.75;;
9629;SDS011;16022;50.884;4.698;2022-07-18T09:44:39;4.40;;;1.98;;
9629;SDS011;16022;50.884;4.698;2022-07-18T09:47:06;3.60;;;1.80;;
9629;SDS011;16022;50.884;4.698;2022-07-18T09:49:34;2.22;;;1.88;;
9629;SDS011;16022;50.884;4.698;2022-07-18T09:52:03;3.53;;;2.00;;
9629;SDS011;16022;50.884;4.698;2022-07-18T09:54:35;2.58;;;1.90;;
9629;SDS011;16022;50.884;4.698;2022-07-18T09:57:03;4.90;;;1.92;;
9629;SDS011;16022;50.884;4.698;2022-07-18T09:59:30;2.28;;;1.83;;
9629;SDS011;16022;50.884;4.698;2022-07-18T10:01:58;5.07;;;1.65;;
9629;SDS011;16022;50.884;4.698;2022-07-18T10:04:26;3.33;;;2.00;;
9629;SDS011;16022;50.884;4.698;2022-07-18T10:06:54;5.53;;;1.88;;
9629;SDS011;16022;50.884;4.698;2022-07-18T10:09:22;3.40;;;1.75;;
9629;SDS011;16022;50.884;4.698;2022-07-18T10:11:49;2.75;;;1.50;;
9629;SDS011;16022;50.884;4.698;2022-07-18T10:14:25;3.38;;;1.83;;
9629;SDS011;16022;50.884;4.698;2022-07-18T10:16:54;2.15;;;1.60;;
9629;SDS011;16022;50.884;4.698;2022-07-18T10:19:22;2.70;;;1.90;;
9629;SDS011;16022;50.884;4.698;2022-07-18T10:21:50;3.42;;;1.92;;
9629;SDS011;16022;50.884;4.698;2022-07-18T10:24:18;3.90;;;1.77;;
9629;SDS011;16022;50.884;4.698;2022-07-18T10:27:10;2.65;;;1.70;;
9629;SDS011;16022;50.884;4.698;2022-07-18T10:29:33;2.45;;;1.77;;
9629;SDS011;16022;50.884;4.698;2022-07-18T10:32:02;7.47;;;1.60;;
9629;SDS011;16022;50.884;4.698;2022-07-18T10:34:36;1.73;;;1.63;;
9629;SDS011;16022;50.884;4.698;2022-07-18T10:37:07;3.53;;;1.88;;
9629;SDS011;16022;50.884;4.698;2022-07-18T10:39:35;1.45;;;1.35;;
9629;SDS011;16022;50.884;4.698;2022-07-18T10:47:05;4.22;;;1.80;;
9629;SDS011;16022;50.884;4.698;2022-07-18T11:00:30;4.25;;;1.60;;
9629;SDS011;16022;50.884;4.698;2022-07-18T11:11:27;2.92;;;1.42;;
9629;SDS011;16022;50.884;4.698;2022-07-18T11:13:30;2.35;;;1.60;;
9629;SDS011;16022;50.884;4.698;2022-07-18T11:16:12;4.10;;;1.40;;
9629;SDS011;16022;50.884;4.698;2022-07-18T11:21:22;6.18;;;1.50;;
9629;SDS011;16022;50.884;4.698;2022-07-18T11:23:59;2.15;;;1.40;;
9629;SDS011;16022;50.884;4.698;2022-07-18T11:26:27;2.90;;;1.85;;
9629;SDS011;16022;50.884;4.698;2022-07-18T11:29:09;1.77;;;1.63;;
9629;SDS011;16022;50.884;4.698;2022-07-18T11:31:42;1.60;;;1.50;;
9629;SDS011;16022;50.884;4.698;2022-07-18T11:34:10;1.60;;;1.50;;
9629;SDS011;16022;50.884;4.698;2022-07-18T11:36:38;5.22;;;1.90;;
9629;SDS011;16022;50.884;4.698;2022-07-18T11:39:06;2.92;;;1.67;;
9629;SDS011;16022;50.884;4.698;2022-07-18T11:41:35;3.58;;;1.73;;
9629;SDS011;16022;50.884;4.698;2022-07-18T11:44:04;2.58;;;1.35;;
9629;SDS011;16022;50.884;4.698;2022-07-18T11:46:32;6.07;;;1.70;;
9629;SDS011;16022;50.884;4.698;2022-07-18T11:49:00;6.63;;;1.75;;
9629;SDS011;16022;50.884;4.698;2022-07-18T11:51:36;5.88;;;1.60;;
9629;SDS011;16022;50.884;4.698;2022-07-18T11:54:05;2.00;;;1.17;;
9629;SDS011;16022;50.884;4.698;2022-07-18T11:56:32;2.67;;;1.50;;
9629;SDS011;16022;50.884;4.698;2022-07-18T11:59:00;3.38;;;1.80;;
9629;SDS011;16022;50.884;4.698;2022-07-18T12:01:31;1.65;;;1.55;;
9629;SDS011;16022;50.884;4.698;2022-07-18T12:04:20;1.50;;;1.40;;
9629;SDS011;16022;50.884;4.698;2022-07-18T12:09:35;2.38;;;1.25;;
9629;SDS011;16022;50.884;4.698;2022-07-18T12:12:12;1.92;;;1.40;;
9629;SDS011;16022;50.884;4.698;2022-07-18T12:14:52;1.92;;;1.35;;
9629;SDS011;16022;50.884;4.698;2022-07-18T12:17:20;1.92;;;1.67;;
9629;SDS011;16022;50.884;4.698;2022-07-18T12:19:48;2.65;;;1.45;;
9629;SDS011;16022;50.884;4.698;2022-07-18T12:22:16;2.65;;;1.60;;
9629;SDS011;16022;50.884;4.698;2022-07-18T12:27:25;4.38;;;1.70;;
9629;SDS011;16022;50.884;4.698;2022-07-18T12:35:08;3.85;;;1.60;;
9629;SDS011;16022;50.884;4.698;2022-07-18T12:37:36;1.73;;;1.50;;
9629;SDS011;16022;50.884;4.698;2022-07-18T12:40:11;2.22;;;1.52;;
9629;SDS011;16022;50.884;4.698;2022-07-18T12:43:02;3.70;;;1.50;;
9629;SDS011;16022;50.884;4.698;2022-07-18T12:45:31;1.83;;;1.40;;
9629;SDS011;16022;50.884;4.698;2022-07-18T12:47:59;3.08;;;1.50;;
9629;SDS011;16022;50.884;4.698;2022-07-18T12:50:27;1.67;;;1.58;;
9629;SDS011;16022;50.884;4.698;2022-07-18T12:52:55;2.28;;;1.60;;
9629;SDS011;16022;50.884;4.698;2022-07-18T12:55:24;1.98;;;1.48;;
9629;SDS011;16022;50.884;4.698;2022-07-18T12:57:57;2.95;;;1.60;;
9629;SDS011;16022;50.884;4.698;2022-07-18T13:00:24;2.88;;;1.30;;
9629;SDS011;16022;50.884;4.698;2022-07-18T13:02:52;2.22;;;1.70;;
9629;SDS011;16022;50.884;4.698;2022-07-18T13:05:22;1.70;;;1.50;;
9629;SDS011;16022;50.884;4.698;2022-07-18T13:07:50;2.20;;;1.40;;
9629;SDS011;16022;50.884;4.698;2022-07-18T13:10:18;1.55;;;1.45;;
9629;SDS011;16022;50.884;4.698;2022-07-18T13:12:45;2.33;;;1.60;;
9629;SDS011;16022;50.884;4.698;2022-07-18T13:15:13;3.20;;;1.70;;
9629;SDS011;16022;50.884;4.698;2022-07-18T13:17:40;2.70;;;1.50;;
9629;SDS011;16022;50.884;4.698;2022-07-18T13:20:08;2.53;;;1.70;;
9629;SDS011;16022;50.884;4.698;2022-07-18T13:22:37;3.30;;;1.60;;
9629;SDS011;16022;50.884;4.698;2022-07-18T13:25:06;3.28;;;1.80;;
9629;SDS011;16022;50.884;4.698;2022-07-18T13:27:34;1.50;;;1.40;;
9629;SDS011;16022;50.884;4.698;2022-07-18T13:30:03;1.58;;;1.45;;
9629;SDS011;16022;50.884;4.698;2022-07-18T13:32:31;1.95;;;1.48;;
9629;SDS011;16022;50.884;4.698;2022-07-18T13:34:59;2.17;;;1.50;;
9629;SDS011;16022;50.884;4.698;2022-07-18T13:37:27;1.63;;;1.38;;
9629;SDS011;16022;50.884;4.698;2022-07-18T13:39:55;1.48;;;1.38;;
9629;SDS011;16022;50.884;4.698;2022-07-18T13:42:22;1.50;;;1.40;;
9629;SDS011;16022;50.884;4.698;2022-07-18T13:44:50;3.47;;;1.42;;
9629;SDS011;16022;50.884;4.698;2022-07-18T13:47:18;2.03;;;1.40;;
9629;SDS011;16022;50.884;4.698;2022-07-18T13:49:45;1.65;;;1.55;;
9629;SDS011;16022;50.884;4.698;2022-07-18T13:52:13;2.00;;;1.80;;
9629;SDS011;16022;50.884;4.698;2022-07-18T13:54:41;2.92;;;1.40;;
9629;SDS011;16022;50.884;4.698;2022-07-18T13:57:09;1.77;;;1.67;;
9629;SDS011;16022;50.884;4.698;2022-07-18T13:59:36;3.45;;;1.60;;
9629;SDS011;16022;50.884;4.698;2022-07-18T14:02:04;1.75;;;1.60;;
9629;SDS011;16022;50.884;4.698;2022-07-18T14:04:32;12.68;;;1.83;;
9629;SDS011;16022;50.884;4.698;2022-07-18T14:07:21;1.98;;;1.70;;
9629;SDS011;16022;50.884;4.698;2022-07-18T14:09:48;3.13;;;1.75;;
9629;SDS011;16022;50.884;4.698;2022-07-18T14:12:20;1.90;;;1.40;;
9629;SDS011;16022;50.884;4.698;2022-07-18T14:14:48;1.63;;;1.52;;
9629;SDS011;16022;50.884;4.698;2022-07-18T14:17:15;3.58;;;1.60;;
9629;SDS011;16022;50.884;4.698;2022-07-18T14:19:43;1.55;;;1.45;;
9629;SDS011;16022;50.884;4.698;2022-07-18T14:22:10;1.52;;;1.42;;
9629;SDS011;16022;50.884;4.698;2022-07-18T14:24:39;2.63;;;1.50;;
9629;SDS011;16022;50.884;4.698;2022-07-18T14:27:06;1.10;;;1.10;;
9629;SDS011;16022;50.884;4.698;2022-07-18T14:29:34;2.10;;;1.55;;
9629;SDS011;16022;50.884;4.698;2022-07-18T14:32:03;2.83;;;1.50;;
9629;SDS011;16022;50.884;4.698;2022-07-18T14:34:31;3.47;;;1.50;;
9629;SDS011;16022;50.884;4.698;2022-07-18T14:37:00;1.88;;;1.50;;
9629;SDS011;16022;50.884;4.698;2022-07-18T14:39:28;3.08;;;1.33;;
9629;SDS011;16022;50.884;4.698;2022-07-18T14:41:55;3.38;;;1.55;;
9629;SDS011;16022;50.884;4.698;2022-07-18T14:44:24;1.92;;;1.63;;
9629;SDS011;16022;50.884;4.698;2022-07-18T14:46:53;1.55;;;1.45;;
9629;SDS011;16022;50.884;4.698;2022-07-18T14:49:21;2.25;;;1.70;;
9629;SDS011;16022;50.884;4.698;2022-07-18T14:51:51;3.75;;;1.60;;
9629;SDS011;16022;50.884;4.698;2022-07-18T14:54:22;2.03;;;1.70;;
9629;SDS011;16022;50.884;4.698;2022-07-18T14:56:50;1.85;;;1.60;;
9629;SDS011;16022;50.884;4.698;2022-07-18T14:59:18;5.07;;;1.83;;
9629;SDS011;16022;50.884;4.698;2022-07-18T15:01:46;1.98;;;1.83;;
9629;SDS011;16022;50.884;4.698;2022-07-18T15:04:15;2.90;;;1.50;;
9629;SDS011;16022;50.884;4.698;2022-07-18T15:06:45;1.70;;;1.52;;
9629;SDS011;16022;50.884;4.698;2022-07-18T15:09:13;2.47;;;1.45;;
9629;SDS011;16022;50.884;4.698;2022-07-18T15:11:41;1.73;;;1.50;;
9629;SDS011;16022;50.884;4.698;2022-07-18T15:14:09;1.63;;;1.52;;
9629;SDS011;16022;50.884;4.698;2022-07-18T15:16:37;2.95;;;1.75;;
9629;SDS011;16022;50.884;4.698;2022-07-18T15:19:04;1.63;;;1.48;;
9629;SDS011;16022;50.884;4.698;2022-07-18T15:21:32;2.25;;;1.50;;
9629;SDS011;16022;50.884;4.698;2022-07-18T15:24:00;1.77;;;1.48;;
9629;SDS011;16022;50.884;4.698;2022-07-18T15:26:28;1.60;;;1.48;;
9629;SDS011;16022;50.884;4.698;2022-07-18T15:28:56;3.38;;;1.70;;
9629;SDS011;16022;50.884;4.698;2022-07-18T15:31:24;2.60;;;1.85;;
9629;SDS011;16022;50.884;4.698;2022-07-18T15:33:51;1.92;;;1.40;;
9629;SDS011;16022;50.884;4.698;2022-07-18T15:36:19;4.63;;;1.58;;
9629;SDS011;16022;50.884;4.698;2022-07-18T15:38:47;1.67;;;1.45;;
9629;SDS011;16022;50.884;4.698;2022-07-18T15:41:14;2.72;;;1.70;;
9629;SDS011;16022;50.884;4.698;2022-07-18T15:43:46;1.63;;;1.40;;
9629;SDS011;16022;50.884;4.698;2022-07-18T15:46:21;1.50;;;1.40;;
9629;SDS011;16022;50.884;4.698;2022-07-18T15:48:49;1.75;;;1.42;;